Time;durP1;ratioP1;P1;durP2;ratioP2;P2;SDS_P1;SDS_P2;PMS_P1;PMS_P2;Temp;Humidity;BMP_temperature;BMP_pressure;BME280_temperature;BME280_humidity;BME280_pressure;Samples;Min_cycle;Max_cycle;Signal;HPM_P1;HPM_P2
2022/01/17 00:01:13;;;;;;;;;;;;;;;17.54;64.50;101424.47;5026182;28;1771;-36
2022/01/17 00:03:40;;;;;;;;;;;;;;;17.61;64.51;101431.94;5027472;28;1650;-36
2022/01/17 00:06:11;;;;;;;;;;;;;;;17.64;64.18;101426.38;5027139;28;1615;-36
2022/01/17 00:08:41;;;;;;;;;;;;;;;17.67;64.10;101434.19;5028905;28;1881;-36
2022/01/17 00:11:27;;;;;;;;;;;;;;;17.64;64.04;101420.16;5029910;28;2257;-36
2022/01/17 00:13:55;;;;;;;;;;;;;;;17.62;64.08;101422.94;5031830;28;1736;-36
2022/01/17 00:16:32;;;;;;;;;;;;;;;17.59;64.17;101422.34;5027932;28;1808;-36
2022/01/17 00:19:34;;;;;;;;;;;;;;;17.54;64.34;101413.78;5017036;28;1559;-36
2022/01/17 00:22:03;;;;;;;;;;;;;;;17.48;64.22;101415.91;5023869;28;1861;-36
2022/01/17 00:24:34;;;;;;;;;;;;;;;17.52;64.06;101405.00;5027156;28;1710;-36
2022/01/17 00:27:04;;;;;;;;;;;;;;;17.56;64.24;101411.84;5024464;28;1552;-36
2022/01/17 00:29:37;;;;;;;;;;;;;;;17.66;63.73;101402.19;5028029;28;1979;-35
2022/01/17 00:32:04;;;;;;;;;;;;;;;17.93;62.68;101410.06;5030666;28;1522;-36
2022/01/17 00:34:32;;;;;;;;;;;;;;;18.02;62.30;101406.69;5027629;28;1607;-36
2022/01/17 00:36:58;;;;;;;;;;;;;;;18.07;62.15;101399.19;5031951;28;1986;-36
2022/01/17 00:39:33;;;;;;;;;;;;;;;18.15;61.94;101393.25;5029155;28;2053;-35
2022/01/17 00:42:00;;;;;;;;;;;;;;;18.14;61.97;101396.91;5025708;28;1856;-36
2022/01/17 00:44:30;;;;;;;;;;;;;;;18.14;62.19;101390.69;5029303;28;1835;-35
2022/01/17 00:46:57;;;;;;;;;;;;;;;18.19;61.49;101394.75;5033808;28;1621;-35
2022/01/17 00:49:24;;;;;;;;;;;;;;;18.18;61.99;101392.16;5027020;28;1974;-35
2022/01/17 00:51:51;;;;;;;;;;;;;;;18.20;61.72;101390.22;5026163;28;1870;-35
2022/01/17 00:54:17;;;;;;;;;;;;;;;18.18;61.38;101390.34;5026490;28;1574;-36
2022/01/17 00:56:44;;;;;;;;;;;;;;;18.19;62.12;101385.88;5032209;28;1593;-35
2022/01/17 00:59:10;;;;;;;;;;;;;;;18.20;61.95;101396.44;5029733;28;1912;-36
2022/01/17 01:01:43;;;;;;;;;;;;;;;18.13;61.71;101378.31;5030195;28;1724;-36
2022/01/17 01:04:10;;;;;;;;;;;;;;;18.15;61.51;101371.00;5025797;28;1457;-36
2022/01/17 01:06:37;;;;;;;;;;;;;;;18.13;61.90;101367.59;5020401;28;1793;-36
2022/01/17 01:09:08;;;;;;;;;;;;;;;18.14;61.42;101347.88;5029960;28;1640;-36
2022/01/17 01:11:34;;;;;;;;;;;;;;;18.04;61.47;101353.91;5031356;28;1898;-36
2022/01/17 01:14:04;;;;;;;;;;;;;;;18.05;61.48;101360.13;5027515;28;1582;-37
2022/01/17 01:16:36;;;;;;;;;;;;;;;17.98;61.96;101346.34;5025923;28;1570;-36
2022/01/17 01:27:38;;;;;;;;;;;;;;;17.89;61.92;101342.53;5028743;28;1736;-35
2022/01/17 01:27:52;;;;;;;;;;;;;;;17.86;61.79;101353.44;5019497;28;1520;-36
2022/01/17 01:30:22;;;;;;;;;;;;;;;17.83;61.87;101340.31;5031823;28;1985;-36
2022/01/17 01:32:52;;;;;;;;;;;;;;;17.82;61.75;101319.84;5031078;28;1920;-36
2022/01/17 01:35:24;;;;;;;;;;;;;;;17.83;61.86;101328.75;5026990;28;1641;-36
2022/01/17 01:37:51;;;;;;;;;;;;;;;17.80;61.95;101327.13;5025743;28;1820;-36
2022/01/17 01:40:28;;;;;;;;;;;;;;;17.80;61.87;101312.91;5027671;28;1548;-36
2022/01/17 01:42:55;;;;;;;;;;;;;;;17.76;61.93;101296.22;5030862;28;1749;-36
2022/01/17 01:45:22;;;;;;;;;;;;;;;17.79;61.80;101301.34;5031155;28;1832;-36
2022/01/17 01:47:49;;;;;;;;;;;;;;;17.80;61.74;101286.16;5031226;28;1739;-36
2022/01/17 01:50:18;;;;;;;;;;;;;;;17.81;61.71;101294.06;5031659;28;1909;-36
2022/01/17 01:52:58;;;;;;;;;;;;;;;17.78;61.57;101272.03;5035584;28;1778;-36
2022/01/17 01:55:32;;;;;;;;;;;;;;;17.81;61.63;101288.72;5035818;28;1531;-36
2022/01/17 01:58:01;;;;;;;;;;;;;;;17.76;61.60;101277.50;5020917;28;1731;-36
2022/01/17 02:00:29;;;;;;;;;;;;;;;17.79;61.37;101279.13;5031570;28;1822;-36
2022/01/17 02:03:04;;;;;;;;;;;;;;;17.76;61.61;101282.00;5031715;28;1640;-36
2022/01/17 02:05:31;;;;;;;;;;;;;;;17.81;61.57;101283.38;5028784;28;1630;-36
2022/01/17 02:08:06;;;;;;;;;;;;;;;17.81;61.44;101280.69;5030432;28;1926;-36
2022/01/17 02:10:34;;;;;;;;;;;;;;;17.84;61.13;101282.31;5034511;28;1910;-35
2022/01/17 02:13:01;;;;;;;;;;;;;;;17.85;61.02;101279.53;5028582;28;1957;-36
2022/01/17 02:15:29;;;;;;;;;;;;;;;17.83;61.21;101281.47;5029308;28;1986;-36
2022/01/17 02:18:00;;;;;;;;;;;;;;;17.80;61.37;101268.28;5030483;28;1925;-36
2022/01/17 02:20:42;;;;;;;;;;;;;;;17.77;61.12;101260.50;5025259;28;1907;-35
2022/01/17 02:23:15;;;;;;;;;;;;;;;17.76;60.97;101263.28;5029583;28;1451;-36
2022/01/17 02:25:43;;;;;;;;;;;;;;;17.76;60.90;101257.94;5029754;28;1753;-36
2022/01/17 02:28:10;;;;;;;;;;;;;;;17.79;60.68;101261.22;5033552;28;1498;-35
2022/01/17 02:33:19;;;;;;;;;;;;;;;17.78;60.68;101251.47;5023559;28;2556;-36
2022/01/17 02:35:52;;;;;;;;;;;;;;;17.84;61.10;101266.25;5031391;28;1823;-36
2022/01/17 02:38:18;;;;;;;;;;;;;;;17.77;60.91;101260.50;5027002;28;1686;-36
2022/01/17 02:40:44;;;;;;;;;;;;;;;17.74;60.83;101255.34;5033183;28;1721;-36
2022/01/17 02:43:17;;;;;;;;;;;;;;;17.75;60.71;101262.44;5034649;28;1696;-36
2022/01/17 02:48:29;;;;;;;;;;;;;;;17.75;60.93;101253.56;5016414;28;1907;-36
2022/01/17 02:51:00;;;;;;;;;;;;;;;17.75;61.12;101269.59;5026948;28;2136;-35
2022/01/17 02:53:27;;;;;;;;;;;;;;;17.73;60.72;101252.81;5031133;28;1687;-36
2022/01/17 02:55:56;;;;;;;;;;;;;;;17.75;60.84;101250.88;5031033;28;1582;-36
2022/01/17 02:58:24;;;;;;;;;;;;;;;17.75;60.90;101251.72;5030846;28;1746;-36
2022/01/17 03:00:53;;;;;;;;;;;;;;;17.71;60.66;101250.25;5141160;22;3788;-33
2022/01/17 03:03:25;;;;;;;;;;;;;;;17.75;60.87;101242.84;5045337;28;1828;-32
2022/01/17 03:05:52;;;;;;;;;;;;;;;17.70;60.66;101244.03;5035917;28;1375;-33
2022/01/17 03:08:36;;;;;;;;;;;;;;;17.72;60.65;101243.06;5043879;28;1602;-31
2022/01/17 03:11:11;;;;;;;;;;;;;;;17.73;60.68;101237.63;5049980;28;1981;-31
2022/01/17 03:13:39;;;;;;;;;;;;;;;17.76;60.39;101236.53;5038918;28;1619;-32
2022/01/17 03:16:12;;;;;;;;;;;;;;;17.74;60.43;101233.97;5037585;28;1905;-33
2022/01/17 03:18:39;;;;;;;;;;;;;;;17.73;60.30;101226.06;5046452;28;1352;-31
2022/01/17 03:21:10;;;;;;;;;;;;;;;17.76;60.23;101231.19;5041544;28;1440;-31
2022/01/17 03:23:43;;;;;;;;;;;;;;;17.74;60.36;101223.25;5052471;28;1726;-32
2022/01/17 03:26:11;;;;;;;;;;;;;;;17.70;60.34;101217.28;5039371;28;2057;-33
2022/01/17 03:28:38;;;;;;;;;;;;;;;17.69;60.40;101212.06;5050841;28;1650;-31
2022/01/17 03:31:10;;;;;;;;;;;;;;;17.67;60.45;101217.53;5047010;28;1969;-31
2022/01/17 03:33:47;;;;;;;;;;;;;;;17.64;60.37;101195.50;5045593;28;1633;-31
2022/01/17 03:36:14;;;;;;;;;;;;;;;17.69;60.36;101204.06;5045947;28;1701;-31
2022/01/17 03:38:44;;;;;;;;;;;;;;;17.66;60.39;101205.13;5051772;28;1781;-31
2022/01/17 03:41:14;;;;;;;;;;;;;;;17.65;60.32;101197.22;5040453;28;1737;-31
2022/01/17 03:43:40;;;;;;;;;;;;;;;17.67;60.46;101195.28;5041063;28;1713;-32
2022/01/17 03:46:08;;;;;;;;;;;;;;;17.65;60.23;101187.38;5046903;28;1569;-31
2022/01/17 03:48:38;;;;;;;;;;;;;;;17.62;60.15;101182.25;5050133;28;1747;-31
2022/01/17 03:51:09;;;;;;;;;;;;;;;17.66;60.31;101174.84;5045424;28;1971;-31
2022/01/17 03:53:37;;;;;;;;;;;;;;;17.67;60.11;101196.13;5035999;28;1722;-31
2022/01/17 03:56:10;;;;;;;;;;;;;;;17.66;60.45;101182.88;5049009;28;1392;-31
2022/01/17 03:58:38;;;;;;;;;;;;;;;17.65;60.13;101189.22;5043921;28;1643;-31
2022/01/17 04:01:09;;;;;;;;;;;;;;;17.68;60.04;101202.31;5042117;28;1643;-31
2022/01/17 04:03:39;;;;;;;;;;;;;;;17.67;60.09;101173.91;5040365;28;1432;-31
2022/01/17 04:06:06;;;;;;;;;;;;;;;17.63;60.03;101183.97;5042472;28;1761;-32
2022/01/17 04:08:34;;;;;;;;;;;;;;;17.62;60.12;101190.28;5043680;28;1728;-32
2022/01/17 04:11:01;;;;;;;;;;;;;;;17.66;59.81;101188.22;5040580;28;1939;-31
2022/01/17 04:13:42;;;;;;;;;;;;;;;17.64;60.03;101182.97;5041411;28;1827;-31
2022/01/17 04:16:14;;;;;;;;;;;;;;;17.63;59.99;101172.44;5043324;28;1429;-32
2022/01/17 04:18:40;;;;;;;;;;;;;;;17.67;59.86;101181.91;5039576;28;1777;-31
2022/01/17 04:21:07;;;;;;;;;;;;;;;17.65;60.03;101192.72;5041417;28;1988;-31
2022/01/17 04:23:41;;;;;;;;;;;;;;;17.66;59.80;101190.91;5040436;28;1891;-31
2022/01/17 04:26:07;;;;;;;;;;;;;;;17.69;59.79;101185.31;5046185;28;1912;-31
2022/01/17 04:28:42;;;;;;;;;;;;;;;17.66;59.79;101183.72;5044731;28;1604;-32
2022/01/17 04:31:08;;;;;;;;;;;;;;;17.69;59.67;101188.00;5051629;28;1909;-31
2022/01/17 04:33:38;;;;;;;;;;;;;;;17.72;59.61;101165.50;5044416;28;1891;-32
2022/01/17 04:36:06;;;;;;;;;;;;;;;17.71;59.67;101180.72;5044296;28;1694;-31
2022/01/17 04:38:34;;;;;;;;;;;;;;;17.72;59.58;101174.38;5048205;28;1862;-31
2022/01/17 04:41:04;;;;;;;;;;;;;;;17.74;59.61;101174.28;5047106;28;1634;-32
2022/01/17 04:43:57;;;;;;;;;;;;;;;17.72;59.12;101161.00;5034847;28;1779;-31
2022/01/17 04:46:26;;;;;;;;;;;;;;;17.66;59.57;101166.81;5041399;28;1669;-31
2022/01/17 04:48:58;;;;;;;;;;;;;;;17.67;59.52;101165.88;5046443;28;1412;-31
2022/01/17 04:51:25;;;;;;;;;;;;;;;17.65;59.73;101155.28;5046116;28;1953;-31
2022/01/17 04:54:13;;;;;;;;;;;;;;;17.64;59.71;101152.72;5034933;28;1936;-31
2022/01/17 04:56:43;;;;;;;;;;;;;;;17.63;59.90;101151.88;5036451;28;1913;-31
2022/01/17 04:59:12;;;;;;;;;;;;;;;17.35;59.67;101098.78;5046069;28;1777;-32
2022/01/17 05:01:39;;;;;;;;;;;;;;;17.59;59.82;101152.22;5040967;28;1567;-31
2022/01/17 05:04:10;;;;;;;;;;;;;;;17.57;59.56;101140.81;5038302;28;1438;-31
2022/01/17 05:06:36;;;;;;;;;;;;;;;17.55;59.93;101135.56;5043980;28;1574;-31
2022/01/17 05:09:03;;;;;;;;;;;;;;;17.58;59.77;101137.13;5048317;28;1563;-31
2022/01/17 05:11:30;;;;;;;;;;;;;;;17.63;59.79;101140.34;5038925;28;1902;-31
2022/01/17 05:13:58;;;;;;;;;;;;;;;17.59;60.11;101139.72;5048322;28;1605;-31
2022/01/17 05:16:32;;;;;;;;;;;;;;;17.58;59.97;101150.50;5034042;28;1910;-31
2022/01/17 05:21:51;;;;;;;;;;;;;;;17.54;59.70;101128.50;5042628;28;1674;-31
2022/01/17 05:24:17;;;;;;;;;;;;;;;17.60;59.97;101132.53;5050828;28;1530;-31
2022/01/17 05:26:45;;;;;;;;;;;;;;;17.56;60.15;101115.00;5043592;28;1944;-31
2022/01/17 05:29:11;;;;;;;;;;;;;;;17.59;59.83;101130.84;5046687;28;1548;-32
2022/01/17 05:31:39;;;;;;;;;;;;;;;17.59;59.74;101112.13;5046041;28;2095;-31
2022/01/17 05:34:05;;;;;;;;;;;;;;;17.60;59.60;101087.91;5049699;28;2002;-31
2022/01/17 05:36:33;;;;;;;;;;;;;;;17.59;59.66;101098.75;5049729;28;1776;-31
2022/01/17 05:39:05;;;;;;;;;;;;;;;17.59;60.17;101088.91;5046765;28;2371;-31
2022/01/17 05:41:31;;;;;;;;;;;;;;;17.60;59.33;101095.09;5050508;28;1380;-31
2022/01/17 05:43:59;;;;;;;;;;;;;;;17.60;59.58;101108.47;5045030;28;1720;-31
2022/01/17 05:46:25;;;;;;;;;;;;;;;17.61;59.47;101102.16;5042320;28;1754;-31
2022/01/17 05:48:56;;;;;;;;;;;;;;;17.60;59.70;101103.94;5051219;28;1545;-31
2022/01/17 05:51:23;;;;;;;;;;;;;;;17.58;59.32;101089.84;5044849;28;1906;-31
2022/01/17 05:53:51;;;;;;;;;;;;;;;17.60;59.98;101087.91;5048994;28;1703;-31
2022/01/17 05:56:23;;;;;;;;;;;;;;;17.56;59.46;101091.78;5050368;28;1477;-31
2022/01/17 05:58:51;;;;;;;;;;;;;;;17.61;59.48;101104.84;5051164;28;1575;-31
2022/01/17 06:01:18;;;;;;;;;;;;;;;17.58;59.46;101100.53;5051360;28;1793;-31
2022/01/17 06:03:48;;;;;;;;;;;;;;;17.59;59.54;101094.25;5052512;28;1602;-33
2022/01/17 06:06:16;;;;;;;;;;;;;;;17.60;59.49;101108.47;5044384;28;1554;-31
2022/01/17 06:08:43;;;;;;;;;;;;;;;17.58;59.74;101111.25;5050301;28;1389;-31
2022/01/17 06:11:11;;;;;;;;;;;;;;;17.58;59.69;101110.41;5043215;28;2068;-31
2022/01/17 06:13:41;;;;;;;;;;;;;;;17.62;59.25;101117.22;5045167;28;1833;-31
2022/01/17 06:16:07;;;;;;;;;;;;;;;17.82;59.19;101129.91;5049355;28;2287;-31
2022/01/17 06:18:37;;;;;;;;;;;;;;;18.33;57.75;101111.72;5045579;28;1590;-32
2022/01/17 06:21:04;;;;;;;;;;;;;;;18.76;57.00;101108.25;5048017;28;2006;-32
2022/01/17 06:23:31;;;;;;;;;;;;;;;19.08;55.94;101086.88;5054019;28;1478;-31
2022/01/17 06:26:14;;;;;;;;;;;;;;;19.31;56.02;101103.69;5048750;28;1828;-32
2022/01/17 06:28:43;;;;;;;;;;;;;;;19.28;58.61;101099.44;5046666;28;1456;-31
2022/01/17 06:31:09;;;;;;;;;;;;;;;19.38;57.63;101109.41;5048924;28;1914;-32
2022/01/17 06:33:38;;;;;;;;;;;;;;;19.29;57.81;101113.69;5051339;28;1873;-31
2022/01/17 06:36:14;;;;;;;;;;;;;;;19.27;57.91;101110.28;5048353;28;1692;-32
2022/01/17 06:38:40;;;;;;;;;;;;;;;19.41;57.93;101109.13;5051411;28;1568;-31
2022/01/17 06:41:07;;;;;;;;;;;;;;;19.52;57.34;101118.94;5047727;28;1914;-31
2022/01/17 06:43:33;;;;;;;;;;;;;;;19.62;57.70;101101.09;5048626;28;1747;-31
2022/01/17 06:46:01;;;;;;;;;;;;;;;19.77;56.95;101102.47;5048883;28;1379;-31
2022/01/17 06:48:28;;;;;;;;;;;;;;;19.55;58.13;101102.59;5042785;28;1931;-30
2022/01/17 06:50:54;;;;;;;;;;;;;;;19.66;58.16;101097.16;5045594;28;1775;-31
2022/01/17 06:53:21;;;;;;;;;;;;;;;19.54;59.38;101109.81;5042974;28;1969;-32
2022/01/17 06:55:47;;;;;;;;;;;;;;;19.80;57.94;101110.28;5051350;28;1766;-31
2022/01/17 06:58:14;;;;;;;;;;;;;;;19.65;58.32;101095.44;5045175;28;1617;-31
2022/01/17 07:00:41;;;;;;;;;;;;;;;19.53;59.55;101080.41;5041932;28;1854;-31
2022/01/17 07:03:08;;;;;;;;;;;;;;;19.73;58.53;101066.16;5037943;28;1527;-31
2022/01/17 07:05:35;;;;;;;;;;;;;;;19.80;57.40;101083.44;5046372;28;1589;-31
2022/01/17 07:08:01;;;;;;;;;;;;;;;19.27;59.06;101087.00;5042898;28;1492;-31
2022/01/17 07:10:28;;;;;;;;;;;;;;;19.00;58.18;101076.78;5044085;28;1670;-32
2022/01/17 07:12:55;;;;;;;;;;;;;;;18.76;59.22;101086.81;5049929;28;1902;-32
2022/01/17 07:15:22;;;;;;;;;;;;;;;18.86;55.19;101082.41;5044294;28;1471;-31
2022/01/17 07:17:48;;;;;;;;;;;;;;;18.96;55.34;101079.84;5046481;28;1730;-31
2022/01/17 07:20:22;;;;;;;;;;;;;;;19.16;56.46;101083.53;5043355;28;1701;-31
2022/01/17 07:22:49;;;;;;;;;;;;;;;19.23;56.07;101095.44;5048586;28;1662;-31
2022/01/17 07:25:15;;;;;;;;;;;;;;;19.24;56.53;101092.63;5049939;28;1547;-31
2022/01/17 07:27:42;;;;;;;;;;;;;;;19.27;55.55;101086.16;5051978;28;1396;-31
2022/01/17 07:30:10;;;;;;;;;;;;;;;19.28;55.85;101085.19;5048302;28;1807;-31
2022/01/17 07:32:37;;;;;;;;;;;;;;;19.26;56.18;101092.53;5037259;28;2060;-31
2022/01/17 07:35:04;;;;;;;;;;;;;;;19.25;55.76;101066.66;5049735;28;1570;-31
2022/01/17 07:37:32;;;;;;;;;;;;;;;19.22;55.90;101040.13;5044660;28;1675;-31
2022/01/17 07:39:59;;;;;;;;;;;;;;;19.17;56.39;101055.75;5043567;28;1503;-34
2022/01/17 07:42:25;;;;;;;;;;;;;;;19.15;57.17;101042.47;5041614;28;1770;-31
2022/01/17 07:44:54;;;;;;;;;;;;;;;19.12;57.51;101058.81;5043474;28;1690;-31
2022/01/17 07:47:28;;;;;;;;;;;;;;;19.17;56.23;101079.88;5052118;28;1548;-31
2022/01/17 07:49:54;;;;;;;;;;;;;;;19.17;56.99;101117.41;5043156;28;1727;-31
2022/01/17 07:52:20;;;;;;;;;;;;;;;19.15;56.70;101128.25;5044894;28;2133;-32
2022/01/17 07:54:49;;;;;;;;;;;;;;;19.18;56.48;101119.97;5045848;28;1682;-32
2022/01/17 07:57:16;;;;;;;;;;;;;;;19.16;57.51;101121.94;5052276;28;1964;-31
2022/01/17 07:59:42;;;;;;;;;;;;;;;19.16;56.86;101107.66;5044026;28;1691;-32
2022/01/17 08:02:09;;;;;;;;;;;;;;;19.27;56.16;101112.97;5048470;28;1708;-30
2022/01/17 08:04:35;;;;;;;;;;;;;;;19.26;56.31;101082.63;5050314;28;1982;-30
2022/01/17 08:07:01;;;;;;;;;;;;;;;19.18;57.34;101055.63;5045355;28;1917;-31
2022/01/17 08:09:30;;;;;;;;;;;;;;;19.21;56.70;101046.47;5049260;28;1460;-30
2022/01/17 08:11:58;;;;;;;;;;;;;;;19.30;57.04;101083.25;5039993;28;1906;-31
2022/01/17 08:14:24;;;;;;;;;;;;;;;19.33;56.69;101107.09;5044272;28;1428;-30
2022/01/17 08:16:52;;;;;;;;;;;;;;;19.27;56.75;101151.34;5044590;28;1774;-32
2022/01/17 08:19:21;;;;;;;;;;;;;;;19.28;56.83;101195.13;5043464;28;1574;-31
2022/01/17 08:21:48;;;;;;;;;;;;;;;19.24;57.73;101226.69;5046476;28;1794;-32
2022/01/17 08:24:18;;;;;;;;;;;;;;;19.25;57.07;101230.22;5048051;28;1747;-32
2022/01/17 08:26:44;;;;;;;;;;;;;;;19.21;57.81;101199.28;5042743;28;2073;-31
2022/01/17 08:29:13;;;;;;;;;;;;;;;19.22;57.38;101171.50;5050795;28;1539;-32
2022/01/17 08:31:42;;;;;;;;;;;;;;;19.22;57.69;101174.19;5042638;28;1985;-30
2022/01/17 08:34:10;;;;;;;;;;;;;;;19.17;57.30;101154.94;5041456;28;1774;-31
2022/01/17 08:36:36;;;;;;;;;;;;;;;19.13;56.94;101118.66;5041499;28;1683;-31
2022/01/17 08:39:03;;;;;;;;;;;;;;;19.18;56.81;101109.25;5043939;28;1708;-30
2022/01/17 08:41:30;;;;;;;;;;;;;;;19.19;57.98;101072.56;5041099;28;1517;-31
2022/01/17 08:44:05;;;;;;;;;;;;;;;19.16;57.92;101062.06;5043371;28;1664;-31
2022/01/17 08:46:45;;;;;;;;;;;;;;;19.21;57.77;101086.69;5041933;28;1683;-30
2022/01/17 08:49:16;;;;;;;;;;;;;;;19.29;56.67;101105.66;5042254;28;1902;-31
2022/01/17 08:51:44;;;;;;;;;;;;;;;19.30;56.62;101069.81;5040335;28;1906;-31
2022/01/17 08:54:11;;;;;;;;;;;;;;;19.34;56.52;101070.38;5038638;28;2560;-31
2022/01/17 08:56:40;;;;;;;;;;;;;;;19.37;56.44;101071.00;5053562;28;1870;-30
2022/01/17 08:59:10;;;;;;;;;;;;;;;19.38;56.75;101069.19;5042445;28;1821;-31
2022/01/17 09:01:39;;;;;;;;;;;;;;;19.38;57.16;101064.66;5046820;28;1647;-31
2022/01/17 09:04:06;;;;;;;;;;;;;;;19.37;57.11;101062.94;5040612;28;1787;-31
2022/01/17 09:06:33;;;;;;;;;;;;;;;19.40;56.53;101049.28;5048696;28;1677;-31
2022/01/17 09:09:00;;;;;;;;;;;;;;;19.42;57.25;101035.75;5042134;28;1441;-31
2022/01/17 09:11:28;;;;;;;;;;;;;;;19.36;56.92;101026.41;5039746;28;1543;-30
2022/01/17 09:13:54;;;;;;;;;;;;;;;19.35;56.74;101003.22;5044507;28;1954;-30
2022/01/17 09:16:21;;;;;;;;;;;;;;;19.28;58.14;101007.44;5041174;28;1627;-30
2022/01/17 09:18:49;;;;;;;;;;;;;;;19.28;57.85;101012.81;5048772;28;1702;-31
2022/01/17 09:21:15;;;;;;;;;;;;;;;19.26;57.07;101020.13;5041829;28;1972;-31
2022/01/17 09:23:42;;;;;;;;;;;;;;;19.20;57.97;101004.53;5048782;28;1496;-31
2022/01/17 09:26:09;;;;;;;;;;;;;;;19.15;58.33;100998.72;5039075;28;2010;-30
2022/01/17 09:28:35;;;;;;;;;;;;;;;19.17;57.77;101005.66;5048207;28;1591;-34
2022/01/17 09:31:02;;;;;;;;;;;;;;;19.10;58.26;100991.09;5044081;28;1813;-31
2022/01/17 09:33:28;;;;;;;;;;;;;;;19.12;57.73;100997.19;5045192;28;1906;-31
2022/01/17 09:35:56;;;;;;;;;;;;;;;19.14;57.50;101002.38;5046986;28;1857;-31
2022/01/17 09:38:23;;;;;;;;;;;;;;;19.14;57.45;101013.09;5040832;28;1572;-31
2022/01/17 09:40:49;;;;;;;;;;;;;;;19.28;58.02;101008.28;5048390;28;1642;-31
2022/01/17 09:43:16;;;;;;;;;;;;;;;19.18;58.13;101009.19;5041397;28;1530;-31
2022/01/17 09:45:42;;;;;;;;;;;;;;;19.19;57.40;101019.78;5043187;28;1572;-30
2022/01/17 09:48:09;;;;;;;;;;;;;;;19.24;57.39;101028.28;5041922;28;1901;-31
2022/01/17 09:50:46;;;;;;;;;;;;;;;19.24;57.45;101019.41;5045786;28;1754;-31
2022/01/17 09:53:18;;;;;;;;;;;;;;;19.20;58.52;101021.50;5043951;28;2013;-31
2022/01/17 09:55:44;;;;;;;;;;;;;;;19.19;57.93;101008.22;5040886;28;1620;-31
2022/01/17 09:58:11;;;;;;;;;;;;;;;19.21;57.61;101012.47;5037698;28;1756;-31
2022/01/17 10:00:38;;;;;;;;;;;;;;;19.18;58.13;101022.59;5045811;28;1786;-31
2022/01/17 10:03:06;;;;;;;;;;;;;;;19.21;58.55;100995.53;5042018;28;1815;-31
2022/01/17 10:05:34;;;;;;;;;;;;;;;19.31;57.40;101015.19;5043784;28;1555;-31
2022/01/17 10:08:03;;;;;;;;;;;;;;;19.30;58.28;101007.28;5041766;28;1515;-30
2022/01/17 10:10:39;;;;;;;;;;;;;;;19.25;58.20;101013.88;5042692;28;1708;-31
2022/01/17 10:13:06;;;;;;;;;;;;;;;19.36;58.01;101009.44;5045267;28;1906;-31
2022/01/17 10:15:44;;;;;;;;;;;;;;;19.31;57.37;101012.53;5051138;28;1393;-30
2022/01/17 10:18:23;;;;;;;;;;;;;;;19.34;57.98;101001.53;5044835;28;1671;-31
2022/01/17 10:20:54;;;;;;;;;;;;;;;19.28;57.62;100986.00;5047462;28;1669;-31
2022/01/17 10:23:44;;;;;;;;;;;;;;;19.25;57.18;100983.56;5048786;28;1583;-32
2022/01/17 10:26:27;;;;;;;;;;;;;;;19.28;57.65;100969.91;5050964;28;1694;-31
2022/01/17 10:34:56;;;;;;;;;;;;;;;19.35;58.50;100964.84;5040882;28;1624;-32
2022/01/17 10:37:23;;;;;;;;;;;;;;;19.55;57.20;100965.78;5049049;28;1497;-34
2022/01/17 10:39:57;;;;;;;;;;;;;;;19.63;58.45;100968.66;5046134;28;1488;-31
2022/01/17 10:42:26;;;;;;;;;;;;;;;19.48;58.51;100969.00;5049687;28;1785;-31
2022/01/17 10:44:52;;;;;;;;;;;;;;;19.55;56.88;100976.53;5045696;28;1954;-31
2022/01/17 10:47:20;;;;;;;;;;;;;;;19.52;57.00;100960.69;5044988;28;1726;-32
2022/01/17 10:49:47;;;;;;;;;;;;;;;19.48;56.29;100944.88;5049265;28;1535;-32
2022/01/17 10:52:14;;;;;;;;;;;;;;;19.45;56.47;100939.75;5049431;28;1621;-31
2022/01/17 10:54:44;;;;;;;;;;;;;;;19.33;57.68;100932.78;5052890;28;1979;-32
2022/01/17 10:57:14;;;;;;;;;;;;;;;19.28;58.20;100929.69;5044966;28;1912;-31
2022/01/17 10:59:41;;;;;;;;;;;;;;;19.27;58.06;100922.59;5043190;28;1551;-31
2022/01/17 11:02:09;;;;;;;;;;;;;;;19.27;58.03;100946.75;5047107;28;1643;-32
2022/01/17 11:04:36;;;;;;;;;;;;;;;19.25;58.05;100943.34;5047382;28;2323;-31
2022/01/17 11:07:03;;;;;;;;;;;;;;;19.27;58.00;100958.31;5044306;28;1595;-31
2022/01/17 11:09:38;;;;;;;;;;;;;;;19.24;57.10;100938.97;5050610;28;1601;-32
2022/01/17 11:12:08;;;;;;;;;;;;;;;19.26;57.85;100945.91;5044097;28;1737;-32
2022/01/17 11:14:36;;;;;;;;;;;;;;;19.22;56.95;100939.09;5041531;28;1902;-31
2022/01/17 11:17:10;;;;;;;;;;;;;;;19.18;58.00;100929.63;5044509;28;1474;-33
2022/01/17 11:22:21;;;;;;;;;;;;;;;19.01;58.28;100904.25;5046615;28;1364;-32
2022/01/17 11:24:48;;;;;;;;;;;;;;;19.05;57.68;100911.06;5044971;28;1519;-32
2022/01/17 11:27:15;;;;;;;;;;;;;;;19.05;58.08;100910.22;5047615;28;1748;-31
2022/01/17 11:29:41;;;;;;;;;;;;;;;18.99;58.09;100905.38;5050993;28;1788;-32
2022/01/17 11:32:08;;;;;;;;;;;;;;;19.05;57.60;100905.69;5044465;28;1548;-31
2022/01/17 11:34:36;;;;;;;;;;;;;;;19.05;57.71;100916.41;5047445;28;1971;-32
2022/01/17 11:37:02;;;;;;;;;;;;;;;19.04;57.80;100920.09;5046916;28;1816;-31
2022/01/17 11:39:29;;;;;;;;;;;;;;;19.07;57.50;100935.91;5045348;28;1976;-31
2022/01/17 11:41:55;;;;;;;;;;;;;;;19.12;57.59;100932.84;5044225;28;1888;-32
2022/01/17 11:44:32;;;;;;;;;;;;;;;19.05;57.42;100924.47;5048053;28;1503;-31
2022/01/17 11:46:59;;;;;;;;;;;;;;;19.05;57.55;100913.72;5040514;28;1501;-31
2022/01/17 11:49:26;;;;;;;;;;;;;;;19.11;57.20;100904.31;5043257;28;1625;-31
2022/01/17 11:51:54;;;;;;;;;;;;;;;19.13;57.51;100923.81;5047990;28;1743;-32
2022/01/17 11:54:25;;;;;;;;;;;;;;;19.09;57.32;100911.66;5048447;28;1905;-31
2022/01/17 11:56:59;;;;;;;;;;;;;;;19.11;57.55;100914.19;5047846;28;1688;-32
2022/01/17 11:59:28;;;;;;;;;;;;;;;19.11;57.39;100911.53;5043813;28;1631;-31
2022/01/17 12:02:13;;;;;;;;;;;;;;;19.09;58.37;100884.84;5042521;28;1651;-31
2022/01/17 12:04:40;;;;;;;;;;;;;;;19.11;57.56;100874.84;5040229;28;1328;-31
2022/01/17 12:07:11;;;;;;;;;;;;;;;19.17;58.58;100855.53;5044575;28;1766;-32
2022/01/17 12:09:54;;;;;;;;;;;;;;;19.14;57.85;100850.47;5041769;28;1684;-32
2022/01/17 12:12:23;;;;;;;;;;;;;;;19.18;57.00;100859.06;5036499;28;1747;-32
2022/01/17 12:15:04;;;;;;;;;;;;;;;19.19;58.12;100876.84;5045858;28;1965;-31
2022/01/17 12:17:31;;;;;;;;;;;;;;;19.20;57.83;100882.09;5048341;28;1485;-32
2022/01/17 12:20:18;;;;;;;;;;;;;;;19.27;57.84;100879.72;5042754;28;1757;-31
2022/01/17 12:22:52;;;;;;;;;;;;;;;19.24;56.95;100888.88;5043649;28;1890;-32
2022/01/17 12:25:34;;;;;;;;;;;;;;;19.25;57.79;100881.66;5035395;28;1805;-32
2022/01/17 12:28:19;;;;;;;;;;;;;;;19.33;56.38;100887.22;5045254;28;1862;-32
2022/01/17 12:30:47;;;;;;;;;;;;;;;19.27;56.88;100871.66;5044991;28;1956;-32
2022/01/17 12:33:14;;;;;;;;;;;;;;;19.22;58.46;100873.91;5043242;28;1906;-33
2022/01/17 12:35:45;;;;;;;;;;;;;;;19.23;58.40;100865.72;5046319;28;1702;-32
2022/01/17 12:38:32;;;;;;;;;;;;;;;19.22;57.61;100855.16;5046590;28;1774;-32
2022/01/17 12:41:00;;;;;;;;;;;;;;;19.35;57.21;100836.97;5040441;28;1753;-31
2022/01/17 12:43:29;;;;;;;;;;;;;;;19.32;57.11;100831.91;5044616;28;1579;-31
2022/01/17 12:45:59;;;;;;;;;;;;;;;19.32;57.96;100842.63;5051480;28;1685;-31
2022/01/17 12:48:26;;;;;;;;;;;;;;;19.32;58.61;100856.03;5048099;28;1610;-31
2022/01/17 12:50:53;;;;;;;;;;;;;;;19.47;57.70;100840.41;5043470;28;1627;-32
2022/01/17 12:53:21;;;;;;;;;;;;;;;19.48;58.33;100848.31;5040541;28;1946;-31
2022/01/17 12:55:49;;;;;;;;;;;;;;;19.46;58.15;100844.09;5042002;28;1631;-31
2022/01/17 12:58:19;;;;;;;;;;;;;;;19.43;58.82;100834.47;5039942;28;1619;-31
2022/01/17 13:00:46;;;;;;;;;;;;;;;19.36;58.96;100811.00;5044164;28;1676;-33
2022/01/17 13:03:13;;;;;;;;;;;;;;;19.44;58.46;100820.06;5046803;28;1951;-31
2022/01/17 13:05:40;;;;;;;;;;;;;;;19.56;58.64;100828.03;5038518;28;1508;-31
2022/01/17 13:08:08;;;;;;;;;;;;;;;19.51;57.89;100819.53;5043156;28;1920;-31
2022/01/17 13:10:38;;;;;;;;;;;;;;;19.40;58.44;100812.44;5052056;28;1987;-32
2022/01/17 13:13:15;;;;;;;;;;;;;;;19.34;58.86;100816.53;5044366;28;1969;-32
2022/01/17 13:15:55;;;;;;;;;;;;;;;19.31;59.08;100838.22;5043974;28;1435;-33
2022/01/17 13:18:21;;;;;;;;;;;;;;;19.24;58.39;100803.09;5047471;28;1793;-32
2022/01/17 13:23:44;;;;;;;;;;;;;;;19.12;58.88;100803.31;5041192;28;1772;-31
2022/01/17 13:26:12;;;;;;;;;;;;;;;19.37;58.56;100796.63;5039011;28;1556;-33